Ayr, North Dakota
Current Conditions -  °F | °C
As of 2:35 AM on Thursday 23 Oct 2014 (Local Time) from KBAC Reporting Station
Clear Clear  
Wind Chill: 39°   Ceiling: Unl
Heat Index: 43°   Visibility: 10mi
Dew Point: 43°   Wind: 7mph
Humidity: 100%   Direction: 240°WSW
Pressure: 29.89"   Gusts: NA
Location:  47.04°N, 97.49°W
Report Text: KBAC 230735Z AUTO 24006KT 10SM CLR 06/06 A2989 RMK AO2
Loading
Personal Weather Stations






























Interactive Weather Map
Tropical Storm Tracking
New forecast layout! Learn more

10-Day Weather Forecast

Advertisements
Track Severe Weather on mobile